sensor_id;sensor_type;location;lat;lon;timestamp;temperature;humidity
57088;DHT22;42965;52.846;6.614;2023-10-19T00:00:49;8.20;99.90
57088;DHT22;42965;52.846;6.614;2023-10-19T00:03:17;8.20;99.90
57088;DHT22;42965;52.846;6.614;2023-10-19T00:05:45;8.20;99.90
57088;DHT22;42965;52.846;6.614;2023-10-19T00:08:15;8.20;99.90
57088;DHT22;42965;52.846;6.614;2023-10-19T00:10:57;8.20;99.90
57088;DHT22;42965;52.846;6.614;2023-10-19T00:13:37;8.20;99.90
57088;DHT22;42965;52.846;6.614;2023-10-19T00:16:05;8.20;99.90
57088;DHT22;42965;52.846;6.614;2023-10-19T00:18:43;8.20;99.90
57088;DHT22;42965;52.846;6.614;2023-10-19T00:21:10;8.20;99.90
57088;DHT22;42965;52.846;6.614;2023-10-19T00:23:56;8.20;99.90
57088;DHT22;42965;52.846;6.614;2023-10-19T00:26:26;8.20;99.90
57088;DHT22;42965;52.846;6.614;2023-10-19T00:29:01;8.20;99.90
57088;DHT22;42965;52.846;6.614;2023-10-19T00:31:47;8.10;99.90
57088;DHT22;42965;52.846;6.614;2023-10-19T00:34:17;8.10;99.90
57088;DHT22;42965;52.846;6.614;2023-10-19T00:36:43;8.20;99.90
57088;DHT22;42965;52.846;6.614;2023-10-19T00:39:12;8.20;99.90
57088;DHT22;42965;52.846;6.614;2023-10-19T00:41:52;8.20;99.90
57088;DHT22;42965;52.846;6.614;2023-10-19T00:44:24;8.20;99.90
57088;DHT22;42965;52.846;6.614;2023-10-19T00:47:08;8.20;99.90
57088;DHT22;42965;52.846;6.614;2023-10-19T00:49:40;8.10;99.90
57088;DHT22;42965;52.846;6.614;2023-10-19T00:52:07;8.20;99.90
57088;DHT22;42965;52.846;6.614;2023-10-19T00:54:57;8.20;99.90
57088;DHT22;42965;52.846;6.614;2023-10-19T00:57:25;8.20;99.90
57088;DHT22;42965;52.846;6.614;2023-10-19T01:00:02;8.20;99.90
57088;DHT22;42965;52.846;6.614;2023-10-19T01:02:41;8.20;99.90
57088;DHT22;42965;52.846;6.614;2023-10-19T01:05:14;8.20;99.90
57088;DHT22;42965;52.846;6.614;2023-10-19T01:07:40;8.10;99.90
57088;DHT22;42965;52.846;6.614;2023-10-19T01:10:11;8.10;99.90
57088;DHT22;42965;52.846;6.614;2023-10-19T01:12:47;8.10;99.90
57088;DHT22;42965;52.846;6.614;2023-10-19T01:15:16;8.10;99.90
57088;DHT22;42965;52.846;6.614;2023-10-19T01:17:50;8.10;99.90
57088;DHT22;42965;52.846;6.614;2023-10-19T01:20:37;8.10;99.90
57088;DHT22;42965;52.846;6.614;2023-10-19T01:23:22;8.10;99.90
57088;DHT22;42965;52.846;6.614;2023-10-19T01:25:57;8.10;99.90
57088;DHT22;42965;52.846;6.614;2023-10-19T01:28:36;8.10;99.90
57088;DHT22;42965;52.846;6.614;2023-10-19T01:31:11;8.10;99.90
57088;DHT22;42965;52.846;6.614;2023-10-19T01:33:44;8.10;99.90
57088;DHT22;42965;52.846;6.614;2023-10-19T01:36:12;8.10;99.90
57088;DHT22;42965;52.846;6.614;2023-10-19T01:38:41;8.10;99.90
57088;DHT22;42965;52.846;6.614;2023-10-19T01:41:09;8.10;99.90
57088;DHT22;42965;52.846;6.614;2023-10-19T01:43:47;8.10;99.90
57088;DHT22;42965;52.846;6.614;2023-10-19T01:46:21;8.10;99.90
57088;DHT22;42965;52.846;6.614;2023-10-19T01:48:49;8.10;99.90
57088;DHT22;42965;52.846;6.614;2023-10-19T01:51:19;8.10;99.90
57088;DHT22;42965;52.846;6.614;2023-10-19T01:53:47;8.20;99.90
57088;DHT22;42965;52.846;6.614;2023-10-19T01:56:15;8.20;99.90
57088;DHT22;42965;52.846;6.614;2023-10-19T01:58:44;8.10;99.90
57088;DHT22;42965;52.846;6.614;2023-10-19T02:01:14;8.20;99.90
57088;DHT22;42965;52.846;6.614;2023-10-19T02:03:53;8.20;99.90
57088;DHT22;42965;52.846;6.614;2023-10-19T02:06:33;8.20;99.90
57088;DHT22;42965;52.846;6.614;2023-10-19T02:09:19;8.20;99.90
57088;DHT22;42965;52.846;6.614;2023-10-19T02:11:57;8.20;99.90
57088;DHT22;42965;52.846;6.614;2023-10-19T02:14:27;8.20;99.90
57088;DHT22;42965;52.846;6.614;2023-10-19T02:17:00;8.30;99.90
57088;DHT22;42965;52.846;6.614;2023-10-19T02:19:28;8.30;99.90
57088;DHT22;42965;52.846;6.614;2023-10-19T02:21:59;8.30;99.90
57088;DHT22;42965;52.846;6.614;2023-10-19T02:24:27;8.30;99.90
57088;DHT22;42965;52.846;6.614;2023-10-19T02:26:57;8.30;99.90
57088;DHT22;42965;52.846;6.614;2023-10-19T02:29:27;8.30;99.90
57088;DHT22;42965;52.846;6.614;2023-10-19T02:31:55;8.30;99.90
57088;DHT22;42965;52.846;6.614;2023-10-19T02:34:22;8.30;99.90
57088;DHT22;42965;52.846;6.614;2023-10-19T02:36:50;8.30;99.90
57088;DHT22;42965;52.846;6.614;2023-10-19T02:39:20;8.40;99.90
57088;DHT22;42965;52.846;6.614;2023-10-19T02:41:49;8.40;99.90
57088;DHT22;42965;52.846;6.614;2023-10-19T02:44:20;8.40;99.90
57088;DHT22;42965;52.846;6.614;2023-10-19T02:46:55;8.40;99.90
57088;DHT22;42965;52.846;6.614;2023-10-19T02:49:27;8.40;99.90
57088;DHT22;42965;52.846;6.614;2023-10-19T02:51:57;8.30;99.90
57088;DHT22;42965;52.846;6.614;2023-10-19T02:54:30;8.40;99.90
57088;DHT22;42965;52.846;6.614;2023-10-19T02:56:59;8.40;99.90
57088;DHT22;42965;52.846;6.614;2023-10-19T02:59:27;8.40;99.90
57088;DHT22;42965;52.846;6.614;2023-10-19T03:01:59;8.40;99.90
57088;DHT22;42965;52.846;6.614;2023-10-19T03:04:39;8.40;99.90
57088;DHT22;42965;52.846;6.614;2023-10-19T03:07:06;8.50;99.90
57088;DHT22;42965;52.846;6.614;2023-10-19T03:09:39;8.50;99.90
57088;DHT22;42965;52.846;6.614;2023-10-19T03:12:06;8.50;99.90
57088;DHT22;42965;52.846;6.614;2023-10-19T03:14:36;8.50;99.90
57088;DHT22;42965;52.846;6.614;2023-10-19T03:17:03;8.50;99.90
57088;DHT22;42965;52.846;6.614;2023-10-19T03:19:30;8.50;99.90
57088;DHT22;42965;52.846;6.614;2023-10-19T03:25:07;8.50;99.90
57088;DHT22;42965;52.846;6.614;2023-10-19T03:27:57;8.50;99.90
57088;DHT22;42965;52.846;6.614;2023-10-19T03:30:25;8.50;99.90
57088;DHT22;42965;52.846;6.614;2023-10-19T03:32:54;8.50;99.90
57088;DHT22;42965;52.846;6.614;2023-10-19T03:35:20;8.50;99.90
57088;DHT22;42965;52.846;6.614;2023-10-19T03:37:52;8.60;99.90
57088;DHT22;42965;52.846;6.614;2023-10-19T03:40:19;8.50;99.90
57088;DHT22;42965;52.846;6.614;2023-10-19T03:42:56;8.50;99.90
57088;DHT22;42965;52.846;6.614;2023-10-19T03:45:22;8.50;99.90
57088;DHT22;42965;52.846;6.614;2023-10-19T03:47:51;8.60;99.90
57088;DHT22;42965;52.846;6.614;2023-10-19T03:50:20;8.60;99.90
57088;DHT22;42965;52.846;6.614;2023-10-19T03:52:47;8.60;99.90
57088;DHT22;42965;52.846;6.614;2023-10-19T03:55:13;8.60;99.90
57088;DHT22;42965;52.846;6.614;2023-10-19T03:57:45;8.60;99.90
57088;DHT22;42965;52.846;6.614;2023-10-19T04:00:20;8.60;99.90
57088;DHT22;42965;52.846;6.614;2023-10-19T04:03:00;8.60;99.90
57088;DHT22;42965;52.846;6.614;2023-10-19T04:05:26;8.60;99.90
57088;DHT22;42965;52.846;6.614;2023-10-19T04:07:55;8.70;99.90
57088;DHT22;42965;52.846;6.614;2023-10-19T04:10:25;8.70;99.90
57088;DHT22;42965;52.846;6.614;2023-10-19T04:13:00;8.70;99.90
57088;DHT22;42965;52.846;6.614;2023-10-19T04:15:27;8.70;99.90
57088;DHT22;42965;52.846;6.614;2023-10-19T04:17:56;8.70;99.90
57088;DHT22;42965;52.846;6.614;2023-10-19T04:20:28;8.70;99.90
57088;DHT22;42965;52.846;6.614;2023-10-19T04:23:13;8.80;99.90
57088;DHT22;42965;52.846;6.614;2023-10-19T04:25:41;8.70;99.90
57088;DHT22;42965;52.846;6.614;2023-10-19T04:28:08;8.80;99.90
57088;DHT22;42965;52.846;6.614;2023-10-19T04:30:35;8.80;99.90
57088;DHT22;42965;52.846;6.614;2023-10-19T04:33:03;8.80;99.90
57088;DHT22;42965;52.846;6.614;2023-10-19T04:35:37;8.80;99.90
57088;DHT22;42965;52.846;6.614;2023-10-19T04:38:07;8.80;99.90
57088;DHT22;42965;52.846;6.614;2023-10-19T04:40:34;8.80;99.90
57088;DHT22;42965;52.846;6.614;2023-10-19T04:43:14;8.80;99.90
57088;DHT22;42965;52.846;6.614;2023-10-19T04:45:42;8.80;99.90
57088;DHT22;42965;52.846;6.614;2023-10-19T04:48:12;8.80;99.90
57088;DHT22;42965;52.846;6.614;2023-10-19T04:50:44;8.90;99.90
57088;DHT22;42965;52.846;6.614;2023-10-19T04:53:10;8.90;99.90
57088;DHT22;42965;52.846;6.614;2023-10-19T04:55:36;8.90;99.90
57088;DHT22;42965;52.846;6.614;2023-10-19T04:58:03;8.90;99.90
57088;DHT22;42965;52.846;6.614;2023-10-19T05:00:29;8.90;99.90
57088;DHT22;42965;52.846;6.614;2023-10-19T05:02:55;9.00;99.90
57088;DHT22;42965;52.846;6.614;2023-10-19T05:05:22;9.00;99.90
57088;DHT22;42965;52.846;6.614;2023-10-19T05:07:48;9.00;99.90
57088;DHT22;42965;52.846;6.614;2023-10-19T05:10:15;9.00;99.90
57088;DHT22;42965;52.846;6.614;2023-10-19T05:12:41;9.00;99.90
57088;DHT22;42965;52.846;6.614;2023-10-19T05:15:09;9.00;99.90
57088;DHT22;42965;52.846;6.614;2023-10-19T05:17:35;9.00;99.90
57088;DHT22;42965;52.846;6.614;2023-10-19T05:20:02;9.00;99.90
57088;DHT22;42965;52.846;6.614;2023-10-19T05:22:31;9.00;99.90
57088;DHT22;42965;52.846;6.614;2023-10-19T05:24:58;9.00;99.90
57088;DHT22;42965;52.846;6.614;2023-10-19T05:27:24;9.10;99.90
57088;DHT22;42965;52.846;6.614;2023-10-19T05:29:52;9.10;99.90
57088;DHT22;42965;52.846;6.614;2023-10-19T05:32:22;9.10;99.90
57088;DHT22;42965;52.846;6.614;2023-10-19T05:34:50;9.20;99.90
57088;DHT22;42965;52.846;6.614;2023-10-19T05:37:18;9.20;99.90
57088;DHT22;42965;52.846;6.614;2023-10-19T05:39:50;9.20;99.90
57088;DHT22;42965;52.846;6.614;2023-10-19T05:42:17;9.30;99.90
57088;DHT22;42965;52.846;6.614;2023-10-19T05:44:44;9.20;99.90
57088;DHT22;42965;52.846;6.614;2023-10-19T05:47:14;9.30;99.90
57088;DHT22;42965;52.846;6.614;2023-10-19T05:49:41;9.30;99.90
57088;DHT22;42965;52.846;6.614;2023-10-19T05:52:14;9.30;99.90
57088;DHT22;42965;52.846;6.614;2023-10-19T05:54:41;9.30;99.90
57088;DHT22;42965;52.846;6.614;2023-10-19T05:57:08;9.40;99.90
57088;DHT22;42965;52.846;6.614;2023-10-19T05:59:35;9.30;99.90
57088;DHT22;42965;52.846;6.614;2023-10-19T06:02:01;9.30;99.90
57088;DHT22;42965;52.846;6.614;2023-10-19T06:04:28;9.40;99.90
57088;DHT22;42965;52.846;6.614;2023-10-19T06:06:54;9.40;99.90
57088;DHT22;42965;52.846;6.614;2023-10-19T06:09:21;9.40;99.90
57088;DHT22;42965;52.846;6.614;2023-10-19T06:11:55;9.40;99.90
57088;DHT22;42965;52.846;6.614;2023-10-19T06:14:21;9.40;99.90
57088;DHT22;42965;52.846;6.614;2023-10-19T06:16:47;9.40;99.90
57088;DHT22;42965;52.846;6.614;2023-10-19T06:19:14;9.40;99.90
57088;DHT22;42965;52.846;6.614;2023-10-19T06:21:42;9.40;99.90
57088;DHT22;42965;52.846;6.614;2023-10-19T06:24:08;9.40;99.90
57088;DHT22;42965;52.846;6.614;2023-10-19T06:26:39;9.40;99.90
57088;DHT22;42965;52.846;6.614;2023-10-19T06:29:05;9.40;99.90
57088;DHT22;42965;52.846;6.614;2023-10-19T06:31:31;9.50;99.90
57088;DHT22;42965;52.846;6.614;2023-10-19T06:33:57;9.50;99.90
57088;DHT22;42965;52.846;6.614;2023-10-19T06:36:24;9.50;99.90
57088;DHT22;42965;52.846;6.614;2023-10-19T06:38:50;9.50;99.90
57088;DHT22;42965;52.846;6.614;2023-10-19T06:41:18;9.50;99.90
57088;DHT22;42965;52.846;6.614;2023-10-19T06:43:44;9.50;99.90
57088;DHT22;42965;52.846;6.614;2023-10-19T06:46:10;9.50;99.90
57088;DHT22;42965;52.846;6.614;2023-10-19T06:48:39;9.60;99.90
57088;DHT22;42965;52.846;6.614;2023-10-19T06:51:06;9.60;99.90
57088;DHT22;42965;52.846;6.614;2023-10-19T06:53:32;9.60;99.90
57088;DHT22;42965;52.846;6.614;2023-10-19T06:56:00;9.70;99.90
57088;DHT22;42965;52.846;6.614;2023-10-19T06:58:26;9.60;99.90
57088;DHT22;42965;52.846;6.614;2023-10-19T07:00:53;9.70;99.90
57088;DHT22;42965;52.846;6.614;2023-10-19T07:03:22;9.70;99.90
57088;DHT22;42965;52.846;6.614;2023-10-19T07:05:52;9.70;99.90
57088;DHT22;42965;52.846;6.614;2023-10-19T07:08:19;9.70;99.90
57088;DHT22;42965;52.846;6.614;2023-10-19T07:10:58;9.80;99.90
57088;DHT22;42965;52.846;6.614;2023-10-19T07:13:26;9.80;99.90
57088;DHT22;42965;52.846;6.614;2023-10-19T07:15:53;9.80;99.90
57088;DHT22;42965;52.846;6.614;2023-10-19T07:18:20;9.80;99.90
57088;DHT22;42965;52.846;6.614;2023-10-19T07:20:47;9.80;99.90
57088;DHT22;42965;52.846;6.614;2023-10-19T07:23:15;9.90;99.90
57088;DHT22;42965;52.846;6.614;2023-10-19T07:25:47;9.90;99.90
57088;DHT22;42965;52.846;6.614;2023-10-19T07:28:26;9.90;99.90
57088;DHT22;42965;52.846;6.614;2023-10-19T07:30:52;9.90;99.90
57088;DHT22;42965;52.846;6.614;2023-10-19T07:33:19;9.90;99.90
57088;DHT22;42965;52.846;6.614;2023-10-19T07:35:47;9.80;99.90
57088;DHT22;42965;52.846;6.614;2023-10-19T07:38:16;9.90;99.90
57088;DHT22;42965;52.846;6.614;2023-10-19T07:40:46;9.90;99.90
57088;DHT22;42965;52.846;6.614;2023-10-19T07:43:13;9.90;99.90
57088;DHT22;42965;52.846;6.614;2023-10-19T07:45:39;10.00;99.90
57088;DHT22;42965;52.846;6.614;2023-10-19T07:48:06;10.00;99.90
57088;DHT22;42965;52.846;6.614;2023-10-19T07:50:34;10.00;99.90
57088;DHT22;42965;52.846;6.614;2023-10-19T07:53:01;10.00;99.90
57088;DHT22;42965;52.846;6.614;2023-10-19T07:55:29;10.10;99.90
57088;DHT22;42965;52.846;6.614;2023-10-19T07:57:58;10.00;99.90
57088;DHT22;42965;52.846;6.614;2023-10-19T08:00:32;10.10;99.90
57088;DHT22;42965;52.846;6.614;2023-10-19T08:03:00;10.10;99.90
57088;DHT22;42965;52.846;6.614;2023-10-19T08:05:26;10.10;99.90
57088;DHT22;42965;52.846;6.614;2023-10-19T08:07:53;10.10;99.90
57088;DHT22;42965;52.846;6.614;2023-10-19T08:10:20;10.10;99.90
57088;DHT22;42965;52.846;6.614;2023-10-19T08:12:48;10.10;99.90
57088;DHT22;42965;52.846;6.614;2023-10-19T08:15:17;10.10;99.90
57088;DHT22;42965;52.846;6.614;2023-10-19T08:17:45;10.20;99.90
57088;DHT22;42965;52.846;6.614;2023-10-19T08:20:13;10.20;99.90
57088;DHT22;42965;52.846;6.614;2023-10-19T08:22:43;10.30;99.90
57088;DHT22;42965;52.846;6.614;2023-10-19T08:25:13;10.30;99.90
57088;DHT22;42965;52.846;6.614;2023-10-19T08:27:42;10.30;99.90
57088;DHT22;42965;52.846;6.614;2023-10-19T08:30:11;10.30;99.90
57088;DHT22;42965;52.846;6.614;2023-10-19T08:32:42;10.40;99.90
57088;DHT22;42965;52.846;6.614;2023-10-19T08:35:09;10.50;99.90
57088;DHT22;42965;52.846;6.614;2023-10-19T08:37:38;10.50;99.90
57088;DHT22;42965;52.846;6.614;2023-10-19T08:40:07;10.50;99.90
57088;DHT22;42965;52.846;6.614;2023-10-19T08:42:41;10.50;99.90
57088;DHT22;42965;52.846;6.614;2023-10-19T08:45:09;10.50;99.90
57088;DHT22;42965;52.846;6.614;2023-10-19T08:47:55;10.40;99.90
57088;DHT22;42965;52.846;6.614;2023-10-19T08:50:29;10.40;99.90
57088;DHT22;42965;52.846;6.614;2023-10-19T08:53:01;10.40;99.90
57088;DHT22;42965;52.846;6.614;2023-10-19T08:55:32;10.30;99.90
57088;DHT22;42965;52.846;6.614;2023-10-19T08:58:00;10.40;99.90
57088;DHT22;42965;52.846;6.614;2023-10-19T09:00:27;10.30;99.90
57088;DHT22;42965;52.846;6.614;2023-10-19T09:02:54;10.30;99.90
57088;DHT22;42965;52.846;6.614;2023-10-19T09:05:20;10.40;99.90
57088;DHT22;42965;52.846;6.614;2023-10-19T09:07:50;10.40;99.90
57088;DHT22;42965;52.846;6.614;2023-10-19T09:10:25;10.40;99.90
57088;DHT22;42965;52.846;6.614;2023-10-19T09:12:59;10.40;99.90
57088;DHT22;42965;52.846;6.614;2023-10-19T09:15:28;10.40;99.90
57088;DHT22;42965;52.846;6.614;2023-10-19T09:18:12;10.50;99.90
57088;DHT22;42965;52.846;6.614;2023-10-19T09:20:43;10.50;99.90
57088;DHT22;42965;52.846;6.614;2023-10-19T09:23:23;10.60;99.90
57088;DHT22;42965;52.846;6.614;2023-10-19T09:25:51;10.60;99.90
57088;DHT22;42965;52.846;6.614;2023-10-19T09:28:19;10.70;99.90
57088;DHT22;42965;52.846;6.614;2023-10-19T09:30:46;10.70;99.90
57088;DHT22;42965;52.846;6.614;2023-10-19T09:33:13;10.70;99.90
57088;DHT22;42965;52.846;6.614;2023-10-19T09:35:50;10.80;99.90
57088;DHT22;42965;52.846;6.614;2023-10-19T09:38:23;10.80;99.90
57088;DHT22;42965;52.846;6.614;2023-10-19T09:40:51;10.80;99.90
57088;DHT22;42965;52.846;6.614;2023-10-19T09:43:43;10.80;99.90
57088;DHT22;42965;52.846;6.614;2023-10-19T09:46:12;10.80;99.90
57088;DHT22;42965;52.846;6.614;2023-10-19T09:48:42;10.80;99.90
57088;DHT22;42965;52.846;6.614;2023-10-19T09:51:10;10.80;99.90
57088;DHT22;42965;52.846;6.614;2023-10-19T09:53:38;10.90;99.90
57088;DHT22;42965;52.846;6.614;2023-10-19T09:56:21;10.80;99.90
57088;DHT22;42965;52.846;6.614;2023-10-19T09:58:57;10.90;99.90
57088;DHT22;42965;52.846;6.614;2023-10-19T10:01:25;10.90;99.90
57088;DHT22;42965;52.846;6.614;2023-10-19T10:03:53;11.00;99.90
57088;DHT22;42965;52.846;6.614;2023-10-19T10:06:31;11.00;99.90
57088;DHT22;42965;52.846;6.614;2023-10-19T10:09:20;11.10;99.90
57088;DHT22;42965;52.846;6.614;2023-10-19T10:11:49;11.20;99.90
57088;DHT22;42965;52.846;6.614;2023-10-19T10:14:29;11.20;99.90
57088;DHT22;42965;52.846;6.614;2023-10-19T10:17:02;11.30;99.90
57088;DHT22;42965;52.846;6.614;2023-10-19T10:19:28;11.30;99.90
57088;DHT22;42965;52.846;6.614;2023-10-19T10:22:08;11.30;99.90
57088;DHT22;42965;52.846;6.614;2023-10-19T10:24:41;11.40;99.90
57088;DHT22;42965;52.846;6.614;2023-10-19T10:27:08;11.50;99.90
57088;DHT22;42965;52.846;6.614;2023-10-19T10:29:36;11.50;99.90
57088;DHT22;42965;52.846;6.614;2023-10-19T10:32:02;11.50;99.90
57088;DHT22;42965;52.846;6.614;2023-10-19T10:37:04;11.60;99.90
57088;DHT22;42965;52.846;6.614;2023-10-19T10:39:34;11.70;99.90
57088;DHT22;42965;52.846;6.614;2023-10-19T10:42:06;11.80;99.90
57088;DHT22;42965;52.846;6.614;2023-10-19T10:44:43;11.80;99.90
57088;DHT22;42965;52.846;6.614;2023-10-19T10:47:12;11.80;99.90
57088;DHT22;42965;52.846;6.614;2023-10-19T10:49:49;11.80;99.90
57088;DHT22;42965;52.846;6.614;2023-10-19T10:54:58;11.80;99.90
57088;DHT22;42965;52.846;6.614;2023-10-19T10:57:34;11.80;99.90
57088;DHT22;42965;52.846;6.614;2023-10-19T11:02:30;11.90;99.90
57088;DHT22;42965;52.846;6.614;2023-10-19T11:04:56;11.90;99.90
57088;DHT22;42965;52.846;6.614;2023-10-19T11:07:22;11.80;99.90
57088;DHT22;42965;52.846;6.614;2023-10-19T11:09:50;11.80;99.90
57088;DHT22;42965;52.846;6.614;2023-10-19T11:12:17;11.80;99.90
57088;DHT22;42965;52.846;6.614;2023-10-19T11:14:56;11.80;99.90
57088;DHT22;42965;52.846;6.614;2023-10-19T11:17:28;11.80;99.90
57088;DHT22;42965;52.846;6.614;2023-10-19T11:19:59;11.90;99.90
57088;DHT22;42965;52.846;6.614;2023-10-19T11:22:26;12.00;99.90
57088;DHT22;42965;52.846;6.614;2023-10-19T11:24:53;12.00;99.90
57088;DHT22;42965;52.846;6.614;2023-10-19T11:27:27;12.10;99.90
57088;DHT22;42965;52.846;6.614;2023-10-19T11:32:22;12.30;99.90
57088;DHT22;42965;52.846;6.614;2023-10-19T11:34:53;12.30;99.90
57088;DHT22;42965;52.846;6.614;2023-10-19T11:37:20;12.40;99.90
57088;DHT22;42965;52.846;6.614;2023-10-19T11:39:46;12.30;99.90
57088;DHT22;42965;52.846;6.614;2023-10-19T11:42:14;12.40;99.90
57088;DHT22;42965;52.846;6.614;2023-10-19T11:44:40;12.40;99.90
57088;DHT22;42965;52.846;6.614;2023-10-19T11:47:06;12.50;99.90
57088;DHT22;42965;52.846;6.614;2023-10-19T11:49:33;12.60;99.90
57088;DHT22;42965;52.846;6.614;2023-10-19T11:52:03;12.70;99.90
57088;DHT22;42965;52.846;6.614;2023-10-19T11:54:29;12.70;99.90
57088;DHT22;42965;52.846;6.614;2023-10-19T11:56:57;12.70;99.90
57088;DHT22;42965;52.846;6.614;2023-10-19T11:59:23;12.80;99.90
57088;DHT22;42965;52.846;6.614;2023-10-19T12:01:49;13.00;99.90
57088;DHT22;42965;52.846;6.614;2023-10-19T12:04:16;13.10;99.90
57088;DHT22;42965;52.846;6.614;2023-10-19T12:06:42;13.30;99.90
57088;DHT22;42965;52.846;6.614;2023-10-19T12:09:08;13.50;99.90
57088;DHT22;42965;52.846;6.614;2023-10-19T12:11:41;13.50;99.90
57088;DHT22;42965;52.846;6.614;2023-10-19T12:14:07;13.40;99.90
57088;DHT22;42965;52.846;6.614;2023-10-19T12:16:41;13.20;99.90
57088;DHT22;42965;52.846;6.614;2023-10-19T12:19:07;13.20;99.90
57088;DHT22;42965;52.846;6.614;2023-10-19T12:21:34;13.30;99.90
57088;DHT22;42965;52.846;6.614;2023-10-19T12:24:04;13.30;99.90
57088;DHT22;42965;52.846;6.614;2023-10-19T12:26:30;13.30;99.90
57088;DHT22;42965;52.846;6.614;2023-10-19T12:28:57;13.30;99.90
57088;DHT22;42965;52.846;6.614;2023-10-19T12:31:24;13.20;99.90
57088;DHT22;42965;52.846;6.614;2023-10-19T12:33:51;13.10;99.90
57088;DHT22;42965;52.846;6.614;2023-10-19T12:36:17;13.10;99.90
57088;DHT22;42965;52.846;6.614;2023-10-19T12:38:58;13.20;99.90
57088;DHT22;42965;52.846;6.614;2023-10-19T12:41:26;13.30;99.90
57088;DHT22;42965;52.846;6.614;2023-10-19T12:43:53;13.20;99.90
57088;DHT22;42965;52.846;6.614;2023-10-19T12:46:34;13.00;99.90
57088;DHT22;42965;52.846;6.614;2023-10-19T12:49:05;12.90;99.90
57088;DHT22;42965;52.846;6.614;2023-10-19T12:51:35;12.90;99.90
57088;DHT22;42965;52.846;6.614;2023-10-19T12:54:01;12.80;99.90
57088;DHT22;42965;52.846;6.614;2023-10-19T12:56:29;12.70;99.90
57088;DHT22;42965;52.846;6.614;2023-10-19T12:58:59;12.70;99.90
57088;DHT22;42965;52.846;6.614;2023-10-19T13:01:25;12.70;99.90
57088;DHT22;42965;52.846;6.614;2023-10-19T13:03:54;12.60;99.90
57088;DHT22;42965;52.846;6.614;2023-10-19T13:06:20;12.60;99.90
57088;DHT22;42965;52.846;6.614;2023-10-19T13:08:53;12.60;99.90
57088;DHT22;42965;52.846;6.614;2023-10-19T13:11:19;12.50;99.90
57088;DHT22;42965;52.846;6.614;2023-10-19T13:13:46;12.40;99.90
57088;DHT22;42965;52.846;6.614;2023-10-19T13:16:12;12.40;99.90
57088;DHT22;42965;52.846;6.614;2023-10-19T13:18:39;12.30;99.90
57088;DHT22;42965;52.846;6.614;2023-10-19T13:21:06;12.30;99.90
57088;DHT22;42965;52.846;6.614;2023-10-19T13:23:35;12.30;99.90
57088;DHT22;42965;52.846;6.614;2023-10-19T13:26:04;12.30;99.90
57088;DHT22;42965;52.846;6.614;2023-10-19T13:28:34;12.30;99.90
57088;DHT22;42965;52.846;6.614;2023-10-19T13:31:04;12.20;99.90
57088;DHT22;42965;52.846;6.614;2023-10-19T13:33:31;12.30;99.90
57088;DHT22;42965;52.846;6.614;2023-10-19T13:35:58;12.30;99.90
57088;DHT22;42965;52.846;6.614;2023-10-19T13:38:24;12.30;99.90
57088;DHT22;42965;52.846;6.614;2023-10-19T13:40:50;12.20;99.90
57088;DHT22;42965;52.846;6.614;2023-10-19T13:43:18;12.20;99.90
57088;DHT22;42965;52.846;6.614;2023-10-19T13:45:56;12.20;99.90
57088;DHT22;42965;52.846;6.614;2023-10-19T13:48:23;12.20;99.90
57088;DHT22;42965;52.846;6.614;2023-10-19T13:50:50;12.20;99.90
57088;DHT22;42965;52.846;6.614;2023-10-19T13:53:19;12.20;99.90
57088;DHT22;42965;52.846;6.614;2023-10-19T13:55:46;12.10;99.90
57088;DHT22;42965;52.846;6.614;2023-10-19T13:58:14;12.10;99.90
57088;DHT22;42965;52.846;6.614;2023-10-19T14:00:43;12.10;99.90
57088;DHT22;42965;52.846;6.614;2023-10-19T14:03:11;12.10;99.90
57088;DHT22;42965;52.846;6.614;2023-10-19T14:05:41;12.10;99.90
57088;DHT22;42965;52.846;6.614;2023-10-19T14:08:09;12.00;99.90
57088;DHT22;42965;52.846;6.614;2023-10-19T14:10:36;12.00;99.90
57088;DHT22;42965;52.846;6.614;2023-10-19T14:13:02;12.00;99.90
57088;DHT22;42965;52.846;6.614;2023-10-19T14:15:31;12.00;99.90
57088;DHT22;42965;52.846;6.614;2023-10-19T14:18:00;12.00;99.90
57088;DHT22;42965;52.846;6.614;2023-10-19T14:20:29;11.90;99.90
57088;DHT22;42965;52.846;6.614;2023-10-19T14:22:57;11.90;99.90
57088;DHT22;42965;52.846;6.614;2023-10-19T14:25:24;11.80;99.90
57088;DHT22;42965;52.846;6.614;2023-10-19T14:27:52;11.80;99.90
57088;DHT22;42965;52.846;6.614;2023-10-19T14:30:25;11.80;99.90
57088;DHT22;42965;52.846;6.614;2023-10-19T14:32:52;11.80;99.90
57088;DHT22;42965;52.846;6.614;2023-10-19T14:35:20;11.70;99.90
57088;DHT22;42965;52.846;6.614;2023-10-19T14:37:49;11.70;99.90
57088;DHT22;42965;52.846;6.614;2023-10-19T14:40:20;11.70;99.90
57088;DHT22;42965;52.846;6.614;2023-10-19T14:42:47;11.70;99.90
57088;DHT22;42965;52.846;6.614;2023-10-19T14:45:16;11.70;99.90
57088;DHT22;42965;52.846;6.614;2023-10-19T14:47:50;11.70;99.90
57088;DHT22;42965;52.846;6.614;2023-10-19T14:50:24;11.70;99.90
57088;DHT22;42965;52.846;6.614;2023-10-19T14:52:52;11.70;99.90
57088;DHT22;42965;52.846;6.614;2023-10-19T14:55:20;11.70;99.90
57088;DHT22;42965;52.846;6.614;2023-10-19T14:57:48;11.70;99.90
57088;DHT22;42965;52.846;6.614;2023-10-19T15:00:17;11.60;99.90
57088;DHT22;42965;52.846;6.614;2023-10-19T15:03:08;11.70;99.90
57088;DHT22;42965;52.846;6.614;2023-10-19T15:05:35;11.60;99.90
57088;DHT22;42965;52.846;6.614;2023-10-19T15:08:02;11.60;99.90
57088;DHT22;42965;52.846;6.614;2023-10-19T15:10:30;11.60;99.90
57088;DHT22;42965;52.846;6.614;2023-10-19T15:12:58;11.50;99.90
57088;DHT22;42965;52.846;6.614;2023-10-19T15:15:31;11.50;99.90
57088;DHT22;42965;52.846;6.614;2023-10-19T15:17:58;11.50;99.90
57088;DHT22;42965;52.846;6.614;2023-10-19T15:20:25;11.50;99.90
57088;DHT22;42965;52.846;6.614;2023-10-19T15:22:55;11.40;99.90
57088;DHT22;42965;52.846;6.614;2023-10-19T15:25:22;11.40;99.90
57088;DHT22;42965;52.846;6.614;2023-10-19T15:27:51;11.50;99.90
57088;DHT22;42965;52.846;6.614;2023-10-19T15:30:18;11.50;99.90
57088;DHT22;42965;52.846;6.614;2023-10-19T15:32:47;11.50;99.90
57088;DHT22;42965;52.846;6.614;2023-10-19T15:35:14;11.50;99.90
57088;DHT22;42965;52.846;6.614;2023-10-19T15:37:44;11.50;99.90
57088;DHT22;42965;52.846;6.614;2023-10-19T15:40:14;11.50;99.90
57088;DHT22;42965;52.846;6.614;2023-10-19T15:42:41;11.50;99.90
57088;DHT22;42965;52.846;6.614;2023-10-19T15:47:35;11.40;99.90
57088;DHT22;42965;52.846;6.614;2023-10-19T15:50:01;11.40;99.90
57088;DHT22;42965;52.846;6.614;2023-10-19T15:52:29;11.40;99.90
57088;DHT22;42965;52.846;6.614;2023-10-19T15:54:58;11.40;99.90
57088;DHT22;42965;52.846;6.614;2023-10-19T15:57:25;11.40;99.90
57088;DHT22;42965;52.846;6.614;2023-10-19T15:59:51;11.30;99.90
57088;DHT22;42965;52.846;6.614;2023-10-19T16:02:18;11.30;99.90
57088;DHT22;42965;52.846;6.614;2023-10-19T16:04:45;11.30;99.90
57088;DHT22;42965;52.846;6.614;2023-10-19T16:07:13;11.30;99.90
57088;DHT22;42965;52.846;6.614;2023-10-19T16:09:40;11.20;99.90